sensor_id;sensor_type;location;lat;lon;timestamp;pressure;altitude;pressure_sealevel;temperature
71205;BMP180;58935;54.498;18.544;2023-05-01T00:01:51;101122.00;;;4.70
71205;BMP180;58935;54.498;18.544;2023-05-01T00:04:16;101130.20;;;4.70
71205;BMP180;58935;54.498;18.544;2023-05-01T00:06:44;101131.20;;;4.66
71205;BMP180;58935;54.498;18.544;2023-05-01T00:09:12;101130.80;;;4.60
71205;BMP180;58935;54.498;18.544;2023-05-01T00:11:39;101124.40;;;4.60
71205;BMP180;58935;54.498;18.544;2023-05-01T00:14:05;101128.60;;;4.60
71205;BMP180;58935;54.498;18.544;2023-05-01T00:16:32;101123.00;;;4.54
71205;BMP180;58935;54.498;18.544;2023-05-01T00:18:59;101120.40;;;4.56
71205;BMP180;58935;54.498;18.544;2023-05-01T00:21:25;101118.60;;;4.58
71205;BMP180;58935;54.498;18.544;2023-05-01T00:23:52;101122.20;;;4.60
71205;BMP180;58935;54.498;18.544;2023-05-01T00:26:17;101129.00;;;4.60
71205;BMP180;58935;54.498;18.544;2023-05-01T00:28:48;101125.20;;;4.50
71205;BMP180;58935;54.498;18.544;2023-05-01T00:31:14;101123.20;;;4.50
71205;BMP180;58935;54.498;18.544;2023-05-01T00:33:40;101124.80;;;4.50
71205;BMP180;58935;54.498;18.544;2023-05-01T00:36:07;101119.00;;;4.50
71205;BMP180;58935;54.498;18.544;2023-05-01T00:38:34;101119.60;;;4.50
71205;BMP180;58935;54.498;18.544;2023-05-01T00:40:59;101120.00;;;4.50
71205;BMP180;58935;54.498;18.544;2023-05-01T00:43:27;101127.40;;;4.50
71205;BMP180;58935;54.498;18.544;2023-05-01T00:45:53;101123.40;;;4.50
71205;BMP180;58935;54.498;18.544;2023-05-01T00:48:18;101130.00;;;4.50
71205;BMP180;58935;54.498;18.544;2023-05-01T00:50:44;101132.20;;;4.50
71205;BMP180;58935;54.498;18.544;2023-05-01T00:53:11;101132.00;;;4.40
71205;BMP180;58935;54.498;18.544;2023-05-01T00:55:40;101133.00;;;4.40
71205;BMP180;58935;54.498;18.544;2023-05-01T00:58:06;101130.40;;;4.38
71205;BMP180;58935;54.498;18.544;2023-05-01T01:00:34;101135.40;;;4.30
71205;BMP180;58935;54.498;18.544;2023-05-01T01:03:00;101138.20;;;4.30
71205;BMP180;58935;54.498;18.544;2023-05-01T01:05:28;101132.40;;;4.26
71205;BMP180;58935;54.498;18.544;2023-05-01T01:08:06;101136.00;;;4.20
71205;BMP180;58935;54.498;18.544;2023-05-01T01:10:46;101127.20;;;4.20
71205;BMP180;58935;54.498;18.544;2023-05-01T01:13:28;101134.20;;;4.20
71205;BMP180;58935;54.498;18.544;2023-05-01T01:16:11;101136.40;;;4.10
71205;BMP180;58935;54.498;18.544;2023-05-01T01:18:55;101139.60;;;4.10
71205;BMP180;58935;54.498;18.544;2023-05-01T01:21:31;101133.80;;;4.10
71205;BMP180;58935;54.498;18.544;2023-05-01T01:24:25;101142.80;;;4.10
71205;BMP180;58935;54.498;18.544;2023-05-01T01:31:19;101144.40;;;4.10
71205;BMP180;58935;54.498;18.544;2023-05-01T01:36:18;101148.20;;;4.10
71205;BMP180;58935;54.498;18.544;2023-05-01T01:39:02;101142.80;;;4.10
71205;BMP180;58935;54.498;18.544;2023-05-01T01:41:33;101134.40;;;4.10
71205;BMP180;58935;54.498;18.544;2023-05-01T01:44:08;101136.80;;;4.10
71205;BMP180;58935;54.498;18.544;2023-05-01T01:46:40;101131.00;;;4.10
71205;BMP180;58935;54.498;18.544;2023-05-01T01:49:16;101125.60;;;4.10
71205;BMP180;58935;54.498;18.544;2023-05-01T01:51:46;101129.20;;;4.10
71205;BMP180;58935;54.498;18.544;2023-05-01T01:54:18;101128.40;;;4.10
71205;BMP180;58935;54.498;18.544;2023-05-01T01:56:48;101131.20;;;4.10
71205;BMP180;58935;54.498;18.544;2023-05-01T01:59:20;101127.80;;;4.10
71205;BMP180;58935;54.498;18.544;2023-05-01T02:01:52;101123.60;;;4.10
71205;BMP180;58935;54.498;18.544;2023-05-01T02:04:21;101120.40;;;4.10
71205;BMP180;58935;54.498;18.544;2023-05-01T02:06:51;101119.20;;;4.14
71205;BMP180;58935;54.498;18.544;2023-05-01T02:09:20;101117.40;;;4.20
71205;BMP180;58935;54.498;18.544;2023-05-01T02:11:49;101112.20;;;4.20
71205;BMP180;58935;54.498;18.544;2023-05-01T02:14:20;101113.40;;;4.20
71205;BMP180;58935;54.498;18.544;2023-05-01T02:16:49;101106.00;;;4.16
71205;BMP180;58935;54.498;18.544;2023-05-01T02:19:21;101112.20;;;4.20
71205;BMP180;58935;54.498;18.544;2023-05-01T02:21:48;101113.80;;;4.20
71205;BMP180;58935;54.498;18.544;2023-05-01T02:24:15;101114.60;;;4.20
71205;BMP180;58935;54.498;18.544;2023-05-01T02:26:46;101113.20;;;4.20
71205;BMP180;58935;54.498;18.544;2023-05-01T02:29:13;101114.80;;;4.20
71205;BMP180;58935;54.498;18.544;2023-05-01T02:31:39;101109.40;;;4.20
71205;BMP180;58935;54.498;18.544;2023-05-01T02:34:07;101110.80;;;4.20
71205;BMP180;58935;54.498;18.544;2023-05-01T02:36:37;101107.20;;;4.20
71205;BMP180;58935;54.498;18.544;2023-05-01T02:39:05;101103.00;;;4.20
71205;BMP180;58935;54.498;18.544;2023-05-01T02:41:34;101108.60;;;4.20
71205;BMP180;58935;54.498;18.544;2023-05-01T02:44:06;101106.80;;;4.20
71205;BMP180;58935;54.498;18.544;2023-05-01T02:46:35;101103.60;;;4.20
71205;BMP180;58935;54.498;18.544;2023-05-01T02:49:03;101103.20;;;4.20
71205;BMP180;58935;54.498;18.544;2023-05-01T02:51:31;101101.20;;;4.18
71205;BMP180;58935;54.498;18.544;2023-05-01T02:53:58;101099.60;;;4.10
71205;BMP180;58935;54.498;18.544;2023-05-01T02:56:30;101093.40;;;4.10
71205;BMP180;58935;54.498;18.544;2023-05-01T02:58:56;101093.60;;;4.10
71205;BMP180;58935;54.498;18.544;2023-05-01T03:01:28;101094.60;;;4.10
71205;BMP180;58935;54.498;18.544;2023-05-01T03:03:54;101095.40;;;4.10
71205;BMP180;58935;54.498;18.544;2023-05-01T03:06:20;101092.40;;;4.10
71205;BMP180;58935;54.498;18.544;2023-05-01T03:08:45;101085.00;;;4.02
71205;BMP180;58935;54.498;18.544;2023-05-01T03:11:12;101085.60;;;4.02
71205;BMP180;58935;54.498;18.544;2023-05-01T03:13:38;101085.40;;;4.10
71205;BMP180;58935;54.498;18.544;2023-05-01T03:16:06;101080.80;;;4.10
71205;BMP180;58935;54.498;18.544;2023-05-01T03:18:32;101071.40;;;4.10
71205;BMP180;58935;54.498;18.544;2023-05-01T03:20:57;101074.60;;;4.14
71205;BMP180;58935;54.498;18.544;2023-05-01T03:23:23;101074.60;;;4.20
71205;BMP180;58935;54.498;18.544;2023-05-01T03:25:49;101071.20;;;4.20
71205;BMP180;58935;54.498;18.544;2023-05-01T03:28:16;101072.40;;;4.22
71205;BMP180;58935;54.498;18.544;2023-05-01T03:30:44;101074.00;;;4.30
71205;BMP180;58935;54.498;18.544;2023-05-01T03:33:11;101070.60;;;4.30
71205;BMP180;58935;54.498;18.544;2023-05-01T03:35:37;101065.80;;;4.32
71205;BMP180;58935;54.498;18.544;2023-05-01T03:38:03;101076.80;;;4.40
71205;BMP180;58935;54.498;18.544;2023-05-01T03:40:28;101073.00;;;4.40
71205;BMP180;58935;54.498;18.544;2023-05-01T03:42:59;101075.20;;;4.42
71205;BMP180;58935;54.498;18.544;2023-05-01T03:45:29;101070.20;;;4.50
71205;BMP180;58935;54.498;18.544;2023-05-01T03:47:57;101071.40;;;4.50
71205;BMP180;58935;54.498;18.544;2023-05-01T03:50:23;101068.00;;;4.50
71205;BMP180;58935;54.498;18.544;2023-05-01T03:52:48;101070.40;;;4.50
71205;BMP180;58935;54.498;18.544;2023-05-01T03:55:14;101070.20;;;4.56
71205;BMP180;58935;54.498;18.544;2023-05-01T03:57:39;101074.00;;;4.60
71205;BMP180;58935;54.498;18.544;2023-05-01T04:00:05;101068.20;;;4.60
71205;BMP180;58935;54.498;18.544;2023-05-01T04:02:31;101074.40;;;4.70
71205;BMP180;58935;54.498;18.544;2023-05-01T04:04:59;101063.80;;;4.70
71205;BMP180;58935;54.498;18.544;2023-05-01T04:07:25;101062.20;;;4.80
71205;BMP180;58935;54.498;18.544;2023-05-01T04:09:51;101063.60;;;4.82
71205;BMP180;58935;54.498;18.544;2023-05-01T04:12:16;101067.00;;;4.90
71205;BMP180;58935;54.498;18.544;2023-05-01T04:14:44;101065.80;;;5.00
71205;BMP180;58935;54.498;18.544;2023-05-01T04:17:10;101066.20;;;5.08
71205;BMP180;58935;54.498;18.544;2023-05-01T04:19:40;101065.60;;;5.10
71205;BMP180;58935;54.498;18.544;2023-05-01T04:22:06;101065.20;;;5.20
71205;BMP180;58935;54.498;18.544;2023-05-01T04:24:33;101069.20;;;5.30
71205;BMP180;58935;54.498;18.544;2023-05-01T04:27:01;101066.60;;;5.32
71205;BMP180;58935;54.498;18.544;2023-05-01T04:29:26;101067.20;;;5.40
71205;BMP180;58935;54.498;18.544;2023-05-01T04:31:54;101075.00;;;5.50
71205;BMP180;58935;54.498;18.544;2023-05-01T04:34:24;101071.00;;;5.60
71205;BMP180;58935;54.498;18.544;2023-05-01T04:36:57;101065.00;;;5.60
71205;BMP180;58935;54.498;18.544;2023-05-01T04:39:23;101065.40;;;5.70
71205;BMP180;58935;54.498;18.544;2023-05-01T04:41:48;101065.00;;;5.80
71205;BMP180;58935;54.498;18.544;2023-05-01T04:44:14;101066.00;;;5.86
71205;BMP180;58935;54.498;18.544;2023-05-01T04:46:41;101072.80;;;5.90
71205;BMP180;58935;54.498;18.544;2023-05-01T04:49:07;101074.00;;;6.00
71205;BMP180;58935;54.498;18.544;2023-05-01T04:51:33;101072.60;;;6.10
71205;BMP180;58935;54.498;18.544;2023-05-01T04:53:59;101071.40;;;6.10
71205;BMP180;58935;54.498;18.544;2023-05-01T04:56:25;101071.40;;;6.20
71205;BMP180;58935;54.498;18.544;2023-05-01T04:58:51;101073.40;;;6.20
71205;BMP180;58935;54.498;18.544;2023-05-01T05:01:16;101078.60;;;6.30
71205;BMP180;58935;54.498;18.544;2023-05-01T05:03:42;101077.60;;;6.36
71205;BMP180;58935;54.498;18.544;2023-05-01T05:06:08;101075.80;;;6.40
71205;BMP180;58935;54.498;18.544;2023-05-01T05:08:33;101081.00;;;6.50
71205;BMP180;58935;54.498;18.544;2023-05-01T05:11:02;101080.40;;;6.50
71205;BMP180;58935;54.498;18.544;2023-05-01T05:13:28;101082.60;;;6.60
71205;BMP180;58935;54.498;18.544;2023-05-01T05:15:53;101086.40;;;6.70
71205;BMP180;58935;54.498;18.544;2023-05-01T05:18:19;101087.60;;;6.80
71205;BMP180;58935;54.498;18.544;2023-05-01T05:20:47;101084.40;;;6.80
71205;BMP180;58935;54.498;18.544;2023-05-01T05:23:13;101084.80;;;6.90
71205;BMP180;58935;54.498;18.544;2023-05-01T05:25:41;101090.60;;;6.90
71205;BMP180;58935;54.498;18.544;2023-05-01T05:28:09;101087.60;;;6.90
71205;BMP180;58935;54.498;18.544;2023-05-01T05:30:34;101084.80;;;6.92
71205;BMP180;58935;54.498;18.544;2023-05-01T05:33:00;101082.00;;;7.00
71205;BMP180;58935;54.498;18.544;2023-05-01T05:35:26;101081.40;;;7.10
71205;BMP180;58935;54.498;18.544;2023-05-01T05:37:51;101082.60;;;7.10
71205;BMP180;58935;54.498;18.544;2023-05-01T05:40:17;101079.20;;;7.12
71205;BMP180;58935;54.498;18.544;2023-05-01T05:42:43;101082.00;;;7.10
71205;BMP180;58935;54.498;18.544;2023-05-01T05:45:11;101084.40;;;7.20
71205;BMP180;58935;54.498;18.544;2023-05-01T05:47:38;101090.00;;;7.22
71205;BMP180;58935;54.498;18.544;2023-05-01T05:50:10;101085.60;;;7.30
71205;BMP180;58935;54.498;18.544;2023-05-01T05:52:35;101082.00;;;7.32
71205;BMP180;58935;54.498;18.544;2023-05-01T05:55:01;101083.20;;;7.42
71205;BMP180;58935;54.498;18.544;2023-05-01T05:57:28;101085.40;;;7.50
71205;BMP180;58935;54.498;18.544;2023-05-01T05:59:54;101085.20;;;7.58
71205;BMP180;58935;54.498;18.544;2023-05-01T06:02:19;101083.00;;;7.60
71205;BMP180;58935;54.498;18.544;2023-05-01T06:04:44;101083.80;;;7.70
71205;BMP180;58935;54.498;18.544;2023-05-01T06:07:10;101083.40;;;7.80
71205;BMP180;58935;54.498;18.544;2023-05-01T06:09:37;101082.20;;;7.90
71205;BMP180;58935;54.498;18.544;2023-05-01T06:12:07;101081.20;;;7.92
71205;BMP180;58935;54.498;18.544;2023-05-01T06:14:33;101077.80;;;8.00
71205;BMP180;58935;54.498;18.544;2023-05-01T06:17:01;101075.40;;;8.10
71205;BMP180;58935;54.498;18.544;2023-05-01T06:19:27;101081.80;;;8.20
71205;BMP180;58935;54.498;18.544;2023-05-01T06:21:52;101072.80;;;8.22
71205;BMP180;58935;54.498;18.544;2023-05-01T06:24:18;101072.00;;;8.30
71205;BMP180;58935;54.498;18.544;2023-05-01T06:26:45;101071.40;;;8.30
71205;BMP180;58935;54.498;18.544;2023-05-01T06:29:11;101078.60;;;8.38
71205;BMP180;58935;54.498;18.544;2023-05-01T06:31:36;101078.40;;;8.40
71205;BMP180;58935;54.498;18.544;2023-05-01T06:34:02;101076.80;;;8.50
71205;BMP180;58935;54.498;18.544;2023-05-01T06:36:27;101078.20;;;8.50
71205;BMP180;58935;54.498;18.544;2023-05-01T06:38:53;101075.60;;;8.60
71205;BMP180;58935;54.498;18.544;2023-05-01T06:41:18;101076.20;;;8.60
71205;BMP180;58935;54.498;18.544;2023-05-01T06:43:46;101072.60;;;8.70
71205;BMP180;58935;54.498;18.544;2023-05-01T06:46:14;101066.40;;;8.74
71205;BMP180;58935;54.498;18.544;2023-05-01T06:48:39;101068.40;;;8.80
71205;BMP180;58935;54.498;18.544;2023-05-01T06:51:05;101068.80;;;8.88
71205;BMP180;58935;54.498;18.544;2023-05-01T06:53:30;101066.80;;;8.90
71205;BMP180;58935;54.498;18.544;2023-05-01T06:55:56;101072.20;;;9.00
71205;BMP180;58935;54.498;18.544;2023-05-01T06:58:22;101068.00;;;9.00
71205;BMP180;58935;54.498;18.544;2023-05-01T07:00:49;101063.40;;;9.00
71205;BMP180;58935;54.498;18.544;2023-05-01T07:03:15;101065.60;;;9.10
71205;BMP180;58935;54.498;18.544;2023-05-01T07:05:41;101059.60;;;9.10
71205;BMP180;58935;54.498;18.544;2023-05-01T07:08:06;101057.00;;;9.20
71205;BMP180;58935;54.498;18.544;2023-05-01T07:10:35;101058.60;;;9.30
71205;BMP180;58935;54.498;18.544;2023-05-01T07:13:00;101051.80;;;9.30
71205;BMP180;58935;54.498;18.544;2023-05-01T07:15:28;101055.60;;;9.40
71205;BMP180;58935;54.498;18.544;2023-05-01T07:17:54;101052.80;;;9.46
71205;BMP180;58935;54.498;18.544;2023-05-01T07:20:22;101055.00;;;9.50
71205;BMP180;58935;54.498;18.544;2023-05-01T07:22:50;101054.80;;;9.60
71205;BMP180;58935;54.498;18.544;2023-05-01T07:25:16;101056.40;;;9.68
71205;BMP180;58935;54.498;18.544;2023-05-01T07:27:42;101053.20;;;9.70
71205;BMP180;58935;54.498;18.544;2023-05-01T07:30:08;101056.40;;;9.80
71205;BMP180;58935;54.498;18.544;2023-05-01T07:32:36;101057.20;;;9.80
71205;BMP180;58935;54.498;18.544;2023-05-01T07:35:02;101058.00;;;9.90
71205;BMP180;58935;54.498;18.544;2023-05-01T07:37:28;101055.80;;;9.90
71205;BMP180;58935;54.498;18.544;2023-05-01T07:39:55;101045.60;;;10.00
71205;BMP180;58935;54.498;18.544;2023-05-01T07:42:25;101052.00;;;10.00
71205;BMP180;58935;54.498;18.544;2023-05-01T07:44:51;101055.20;;;10.00
71205;BMP180;58935;54.498;18.544;2023-05-01T07:47:17;101051.60;;;10.10
71205;BMP180;58935;54.498;18.544;2023-05-01T07:49:47;101050.00;;;10.14
71205;BMP180;58935;54.498;18.544;2023-05-01T07:52:15;101045.40;;;10.20
71205;BMP180;58935;54.498;18.544;2023-05-01T07:54:40;101047.40;;;10.30
71205;BMP180;58935;54.498;18.544;2023-05-01T07:57:08;101046.40;;;10.30
71205;BMP180;58935;54.498;18.544;2023-05-01T07:59:34;101045.80;;;10.40
71205;BMP180;58935;54.498;18.544;2023-05-01T08:01:59;101044.60;;;10.40
71205;BMP180;58935;54.498;18.544;2023-05-01T08:04:26;101042.40;;;10.50
71205;BMP180;58935;54.498;18.544;2023-05-01T08:06:52;101037.20;;;10.50
71205;BMP180;58935;54.498;18.544;2023-05-01T08:09:17;101048.00;;;10.60
71205;BMP180;58935;54.498;18.544;2023-05-01T08:11:43;101043.60;;;10.70
71205;BMP180;58935;54.498;18.544;2023-05-01T08:14:08;101047.40;;;10.70
71205;BMP180;58935;54.498;18.544;2023-05-01T08:16:38;101041.00;;;10.70
71205;BMP180;58935;54.498;18.544;2023-05-01T08:19:04;101039.40;;;10.80
71205;BMP180;58935;54.498;18.544;2023-05-01T08:21:29;101038.40;;;10.80
71205;BMP180;58935;54.498;18.544;2023-05-01T08:23:55;101045.00;;;10.86
71205;BMP180;58935;54.498;18.544;2023-05-01T08:26:23;101048.40;;;10.90
71205;BMP180;58935;54.498;18.544;2023-05-01T08:28:51;101047.20;;;10.90
71205;BMP180;58935;54.498;18.544;2023-05-01T08:31:19;101045.00;;;11.00
71205;BMP180;58935;54.498;18.544;2023-05-01T08:33:45;101045.40;;;11.00
71205;BMP180;58935;54.498;18.544;2023-05-01T08:36:15;101047.60;;;11.00
71205;BMP180;58935;54.498;18.544;2023-05-01T08:38:41;101042.60;;;11.10
71205;BMP180;58935;54.498;18.544;2023-05-01T08:41:08;101038.80;;;11.20
71205;BMP180;58935;54.498;18.544;2023-05-01T08:43:34;101042.40;;;11.24
71205;BMP180;58935;54.498;18.544;2023-05-01T08:46:01;101041.60;;;11.30
71205;BMP180;58935;54.498;18.544;2023-05-01T08:48:31;101043.60;;;11.40
71205;BMP180;58935;54.498;18.544;2023-05-01T08:50:59;101035.40;;;11.40
71205;BMP180;58935;54.498;18.544;2023-05-01T08:53:27;101029.80;;;11.40
71205;BMP180;58935;54.498;18.544;2023-05-01T08:55:55;101026.40;;;11.50
71205;BMP180;58935;54.498;18.544;2023-05-01T08:58:24;101023.20;;;11.50
71205;BMP180;58935;54.498;18.544;2023-05-01T09:00:52;101028.60;;;11.60
71205;BMP180;58935;54.498;18.544;2023-05-01T09:03:25;101028.20;;;11.70
71205;BMP180;58935;54.498;18.544;2023-05-01T09:05:55;101028.20;;;11.80
71205;BMP180;58935;54.498;18.544;2023-05-01T09:08:22;101026.40;;;11.82
71205;BMP180;58935;54.498;18.544;2023-05-01T09:10:53;101023.40;;;11.90
71205;BMP180;58935;54.498;18.544;2023-05-01T09:13:29;101028.60;;;11.90
71205;BMP180;58935;54.498;18.544;2023-05-01T09:16:03;101032.00;;;12.00
71205;BMP180;58935;54.498;18.544;2023-05-01T09:18:29;101021.40;;;12.00
71205;BMP180;58935;54.498;18.544;2023-05-01T09:20:58;101017.60;;;12.10
71205;BMP180;58935;54.498;18.544;2023-05-01T09:23:27;101016.20;;;12.12
71205;BMP180;58935;54.498;18.544;2023-05-01T09:25:54;101009.40;;;12.20
71205;BMP180;58935;54.498;18.544;2023-05-01T09:28:39;101009.40;;;12.20
71205;BMP180;58935;54.498;18.544;2023-05-01T09:33:54;101006.00;;;12.30
71205;BMP180;58935;54.498;18.544;2023-05-01T09:36:23;101005.60;;;12.32
71205;BMP180;58935;54.498;18.544;2023-05-01T09:38:51;100998.20;;;12.40
71205;BMP180;58935;54.498;18.544;2023-05-01T09:41:19;100994.00;;;12.30
71205;BMP180;58935;54.498;18.544;2023-05-01T09:43:52;100994.20;;;12.30
71205;BMP180;58935;54.498;18.544;2023-05-01T09:46:22;100996.60;;;12.40
71205;BMP180;58935;54.498;18.544;2023-05-01T09:48:56;100992.60;;;12.40
71205;BMP180;58935;54.498;18.544;2023-05-01T09:51:29;100995.60;;;12.40
71205;BMP180;58935;54.498;18.544;2023-05-01T09:53:57;100992.00;;;12.48
71205;BMP180;58935;54.498;18.544;2023-05-01T09:56:26;100992.60;;;12.50
71205;BMP180;58935;54.498;18.544;2023-05-01T09:58:54;100992.00;;;12.50
71205;BMP180;58935;54.498;18.544;2023-05-01T10:01:38;100990.40;;;12.60
71205;BMP180;58935;54.498;18.544;2023-05-01T10:04:07;100989.20;;;12.60
71205;BMP180;58935;54.498;18.544;2023-05-01T10:06:34;100988.80;;;12.70
71205;BMP180;58935;54.498;18.544;2023-05-01T10:09:05;100984.60;;;12.70
71205;BMP180;58935;54.498;18.544;2023-05-01T10:14:10;100976.00;;;12.80
71205;BMP180;58935;54.498;18.544;2023-05-01T10:16:37;100972.00;;;12.80
71205;BMP180;58935;54.498;18.544;2023-05-01T10:19:04;100964.80;;;12.80
71205;BMP180;58935;54.498;18.544;2023-05-01T10:21:31;100960.20;;;12.80
71205;BMP180;58935;54.498;18.544;2023-05-01T10:24:00;100959.60;;;12.80
71205;BMP180;58935;54.498;18.544;2023-05-01T10:26:26;100962.60;;;12.90
71205;BMP180;58935;54.498;18.544;2023-05-01T10:28:55;100959.20;;;12.90
71205;BMP180;58935;54.498;18.544;2023-05-01T10:31:24;100949.00;;;12.90
71205;BMP180;58935;54.498;18.544;2023-05-01T10:33:51;100952.80;;;12.90
71205;BMP180;58935;54.498;18.544;2023-05-01T10:36:26;100949.00;;;12.90
71205;BMP180;58935;54.498;18.544;2023-05-01T10:38:57;100950.00;;;12.94
71205;BMP180;58935;54.498;18.544;2023-05-01T10:47:46;100937.00;;;13.20
71205;BMP180;58935;54.498;18.544;2023-05-01T10:50:15;100938.20;;;13.20
71205;BMP180;58935;54.498;18.544;2023-05-01T10:55:34;100932.00;;;13.30
71205;BMP180;58935;54.498;18.544;2023-05-01T10:58:00;100932.80;;;13.30
71205;BMP180;58935;54.498;18.544;2023-05-01T11:00:26;100928.00;;;13.30
71205;BMP180;58935;54.498;18.544;2023-05-01T11:06:03;100919.60;;;13.40
71205;BMP180;58935;54.498;18.544;2023-05-01T11:08:31;100922.60;;;13.40
71205;BMP180;58935;54.498;18.544;2023-05-01T11:11:46;100921.60;;;13.40
71205;BMP180;58935;54.498;18.544;2023-05-01T11:14:13;100913.40;;;13.48
71205;BMP180;58935;54.498;18.544;2023-05-01T11:16:41;100906.80;;;13.50
71205;BMP180;58935;54.498;18.544;2023-05-01T11:19:46;100908.60;;;13.50
71205;BMP180;58935;54.498;18.544;2023-05-01T11:22:12;100903.00;;;13.60
71205;BMP180;58935;54.498;18.544;2023-05-01T11:24:38;100899.80;;;13.70
71205;BMP180;58935;54.498;18.544;2023-05-01T11:27:04;100895.80;;;13.70
71205;BMP180;58935;54.498;18.544;2023-05-01T11:29:34;100901.60;;;13.80
71205;BMP180;58935;54.498;18.544;2023-05-01T11:32:00;100904.00;;;13.90
71205;BMP180;58935;54.498;18.544;2023-05-01T11:34:26;100899.00;;;13.90
71205;BMP180;58935;54.498;18.544;2023-05-01T11:36:52;100893.60;;;13.90
71205;BMP180;58935;54.498;18.544;2023-05-01T11:39:19;100891.80;;;13.90
71205;BMP180;58935;54.498;18.544;2023-05-01T11:41:47;100890.20;;;14.00
71205;BMP180;58935;54.498;18.544;2023-05-01T11:44:16;100882.20;;;14.00
71205;BMP180;58935;54.498;18.544;2023-05-01T11:46:42;100881.60;;;14.08
71205;BMP180;58935;54.498;18.544;2023-05-01T11:49:07;100876.00;;;14.10
71205;BMP180;58935;54.498;18.544;2023-05-01T11:51:34;100871.80;;;14.10
71205;BMP180;58935;54.498;18.544;2023-05-01T11:54:05;100864.60;;;14.10
71205;BMP180;58935;54.498;18.544;2023-05-01T11:56:33;100867.20;;;14.20
71205;BMP180;58935;54.498;18.544;2023-05-01T11:59:11;100862.40;;;14.24
71205;BMP180;58935;54.498;18.544;2023-05-01T12:01:40;100862.40;;;14.24
71205;BMP180;58935;54.498;18.544;2023-05-01T12:04:07;100861.00;;;14.28
71205;BMP180;58935;54.498;18.544;2023-05-01T12:06:40;100857.60;;;14.20
71205;BMP180;58935;54.498;18.544;2023-05-01T12:11:46;100846.20;;;14.20
71205;BMP180;58935;54.498;18.544;2023-05-01T12:14:14;100847.00;;;14.30
71205;BMP180;58935;54.498;18.544;2023-05-01T12:16:43;100844.60;;;14.30
71205;BMP180;58935;54.498;18.544;2023-05-01T12:19:13;100846.40;;;14.38
71205;BMP180;58935;54.498;18.544;2023-05-01T12:21:39;100841.80;;;14.40
71205;BMP180;58935;54.498;18.544;2023-05-01T12:24:13;100836.60;;;14.46
71205;BMP180;58935;54.498;18.544;2023-05-01T12:26:41;100838.00;;;14.50
71205;BMP180;58935;54.498;18.544;2023-05-01T12:29:10;100833.00;;;14.60
71205;BMP180;58935;54.498;18.544;2023-05-01T12:31:45;100834.00;;;14.70
71205;BMP180;58935;54.498;18.544;2023-05-01T12:34:17;100833.00;;;14.70
71205;BMP180;58935;54.498;18.544;2023-05-01T12:36:53;100823.40;;;14.80
71205;BMP180;58935;54.498;18.544;2023-05-01T12:39:24;100818.60;;;14.90
71205;BMP180;58935;54.498;18.544;2023-05-01T12:41:52;100817.40;;;15.00
71205;BMP180;58935;54.498;18.544;2023-05-01T12:44:24;100821.40;;;15.10
71205;BMP180;58935;54.498;18.544;2023-05-01T12:49:26;100803.80;;;14.88
71205;BMP180;58935;54.498;18.544;2023-05-01T12:51:56;100802.20;;;14.90
71205;BMP180;58935;54.498;18.544;2023-05-01T12:54:28;100802.00;;;15.10
71205;BMP180;58935;54.498;18.544;2023-05-01T12:59:40;100796.00;;;15.10
71205;BMP180;58935;54.498;18.544;2023-05-01T13:02:10;100787.40;;;15.00
71205;BMP180;58935;54.498;18.544;2023-05-01T13:04:38;100783.00;;;15.00
71205;BMP180;58935;54.498;18.544;2023-05-01T13:07:11;100780.60;;;15.00
71205;BMP180;58935;54.498;18.544;2023-05-01T13:09:37;100773.40;;;14.90
71205;BMP180;58935;54.498;18.544;2023-05-01T13:12:05;100766.60;;;14.88
71205;BMP180;58935;54.498;18.544;2023-05-01T13:14:38;100767.60;;;14.90
71205;BMP180;58935;54.498;18.544;2023-05-01T13:17:07;100760.40;;;14.82
71205;BMP180;58935;54.498;18.544;2023-05-01T13:19:33;100755.80;;;14.74
71205;BMP180;58935;54.498;18.544;2023-05-01T13:21:59;100750.20;;;14.70
71205;BMP180;58935;54.498;18.544;2023-05-01T13:26:59;100740.40;;;14.70
71205;BMP180;58935;54.498;18.544;2023-05-01T13:29:25;100744.00;;;14.78
71205;BMP180;58935;54.498;18.544;2023-05-01T13:31:51;100738.00;;;14.72
71205;BMP180;58935;54.498;18.544;2023-05-01T13:34:24;100729.80;;;14.70
71205;BMP180;58935;54.498;18.544;2023-05-01T13:36:54;100732.00;;;14.82
71205;BMP180;58935;54.498;18.544;2023-05-01T13:39:21;100735.60;;;14.90
71205;BMP180;58935;54.498;18.544;2023-05-01T13:41:48;100727.80;;;15.00
71205;BMP180;58935;54.498;18.544;2023-05-01T13:44:16;100738.80;;;15.10
71205;BMP180;58935;54.498;18.544;2023-05-01T13:46:42;100725.80;;;15.20
71205;BMP180;58935;54.498;18.544;2023-05-01T13:49:08;100730.60;;;15.20
71205;BMP180;58935;54.498;18.544;2023-05-01T13:51:40;100735.20;;;15.10
71205;BMP180;58935;54.498;18.544;2023-05-01T13:54:08;100734.20;;;15.10
71205;BMP180;58935;54.498;18.544;2023-05-01T13:56:37;100728.80;;;15.10
71205;BMP180;58935;54.498;18.544;2023-05-01T13:59:06;100723.40;;;15.10
71205;BMP180;58935;54.498;18.544;2023-05-01T14:01:40;100715.40;;;15.00
71205;BMP180;58935;54.498;18.544;2023-05-01T14:04:08;100708.80;;;14.94
71205;BMP180;58935;54.498;18.544;2023-05-01T14:06:41;100696.40;;;14.90
71205;BMP180;58935;54.498;18.544;2023-05-01T14:09:08;100694.40;;;14.90
71205;BMP180;58935;54.498;18.544;2023-05-01T14:11:42;100684.80;;;14.92
71205;BMP180;58935;54.498;18.544;2023-05-01T14:14:09;100687.60;;;15.00
71205;BMP180;58935;54.498;18.544;2023-05-01T14:16:39;100684.00;;;15.10
71205;BMP180;58935;54.498;18.544;2023-05-01T14:19:16;100680.40;;;15.30
71205;BMP180;58935;54.498;18.544;2023-05-01T14:21:42;100675.40;;;15.48
71205;BMP180;58935;54.498;18.544;2023-05-01T14:24:09;100670.80;;;15.60
71205;BMP180;58935;54.498;18.544;2023-05-01T14:26:38;100665.80;;;15.70
71205;BMP180;58935;54.498;18.544;2023-05-01T14:29:15;100666.60;;;15.70
71205;BMP180;58935;54.498;18.544;2023-05-01T14:31:41;100667.40;;;15.80
71205;BMP180;58935;54.498;18.544;2023-05-01T14:34:07;100656.20;;;15.90